Main page
METAR-TAF:

METAR-TAF

Airports :

Dundee Airport

Dundee, Scotland

latitude: 56-27N, longitude: 003-01W, elevation: 4 m

Current weather observation

The report was made 3 hours and 47 minutes ago, at 19:50 UTC
Wind 19 kt from the West
Temperature 12°C
Humidity 71%
Pressure 1006 hPa
Visibility 10 km or more
Few clouds at a height of 4800 ft

METAR: EGPN 251950Z 26019KT 9999 FEW048 12/07 Q1006

Time: 00:37 (23:37 UTC)

Forecast

The report was made 6 hours and 38 minutes ago, at 16:59 UTC
Forecast valid from 25 at 18 UTC to 25 at 21 UTC
Wind 22 kt from the West with gusts up to 32 kt
Visibility 10 km or more
Few clouds at a height of 4000 ft
Becoming
from 25 at 18 UTC to 25 at 21 UTC
Wind 14 kt from the West/Southwest

TAF: EGPN 251659Z 2518/2521 26022G32KT 9999 FEW040 BECMG 2518/2521 25014KT

Weather observations and forecasts of more than 4000 airports (METAR and TAF reports).

The available stations are represented by yellow and red dots on the map.

Hover mouse over dot to see the name of the station.

Then click to see weather observations and forecasts.

To change the map : click on the green buttons with a black cross to zoom in, on the green button with a dash to zoom out, or on the green arrows for adjacent maps.


METAR-TAF: